Time;durP1;ratioP1;P1;durP2;ratioP2;P2;SDS_P1;SDS_P2;PMS_P1;PMS_P2;Temp;Humidity;BMP_temperature;BMP_pressure;BME280_temperature;BME280_humidity;BME280_pressure;Samples;Min_cycle;Max_cycle;Signal;HPM_P1;HPM_P2
2022/03/24 00:04:42;;;;;;;4.07;0.70;;;;;;;-2.28;89.12;100797.72;10255095;29;20040;-77
2022/03/24 00:09:43;;;;;;;7.03;1.17;;;;;;;-2.11;88.63;100805.56;10254375;29;20043;-77
2022/03/24 00:14:44;;;;;;;5.45;0.90;;;;;;;-1.95;89.42;100816.88;10254042;29;20122;-77
2022/03/24 00:19:46;;;;;;;3.42;0.95;;;;;;;-1.18;89.42;100896.38;10253889;29;20098;-77
2022/03/24 00:24:46;;;;;;;2.13;0.50;;;;;;;-0.98;89.18;100908.38;10255006;29;20403;-77
2022/03/24 00:29:47;;;;;;;3.30;1.23;;;;;;;-0.92;88.77;100856.72;10254487;29;20051;-77
2022/03/24 00:34:48;;;;;;;2.20;0.90;;;;;;;-0.59;88.78;100868.03;10254597;29;20083;-77
2022/03/24 00:39:49;;;;;;;3.47;1.05;;;;;;;-0.73;88.23;100808.78;10253714;29;20728;-77
2022/03/24 00:44:51;;;;;;;2.47;1.05;;;;;;;-0.96;87.88;100740.47;10253589;29;20059;-77
2022/03/24 00:49:52;;;;;;;13.93;4.53;;;;;;;-1.22;86.92;100665.47;10252525;29;20504;-77
2022/03/24 00:54:52;;;;;;;14.70;5.50;;;;;;;-0.76;86.33;100699.38;10252570;29;20211;-76
2022/03/24 00:59:53;;;;;;;6.25;2.08;;;;;;;0.13;85.88;100817.81;10263952;28;20035;-77
2022/03/24 01:04:55;;;;;;;7.25;1.95;;;;;;;0.02;85.36;100795.84;10292080;28;20145;-77
2022/03/24 01:09:56;;;;;;;4.65;2.17;;;;;;;-0.11;85.27;100751.34;10276241;28;20047;-77
2022/03/24 01:14:58;;;;;;;9.68;1.48;;;;;;;0.36;85.23;100811.25;10292228;28;20491;-76
2022/03/24 01:19:59;;;;;;;8.30;2.47;;;;;;;0.44;84.74;100816.00;10292424;28;20043;-76
2022/03/24 01:25:00;;;;;;;3.88;1.15;;;;;;;0.29;84.39;100783.78;10290684;28;20407;-77
2022/03/24 01:30:01;;;;;;;3.80;1.27;;;;;;;0.33;84.13;100774.84;10291664;28;20499;-77
2022/03/24 01:35:07;;;;;;;16.13;4.60;;;;;;;-0.36;83.83;100634.44;10292932;28;20059;-76
2022/03/24 01:40:10;;;;;;;3.38;1.13;;;;;;;0.38;83.50;100741.41;10291756;28;20050;-76
2022/03/24 01:45:11;;;;;;;3.03;0.98;;;;;;;0.47;83.58;100753.09;10291339;28;20065;-76
2022/03/24 01:50:12;;;;;;;1.83;0.50;;;;;;;0.59;82.87;100756.72;10290672;28;20130;-76
2022/03/24 01:55:13;;;;;;;2.25;0.95;;;;;;;-0.17;83.28;100632.41;10264770;28;20043;-76
2022/03/24 02:00:14;;;;;;;3.30;1.02;;;;;;;0.48;82.89;100731.25;10251486;29;20047;-76
2022/03/24 02:05:15;;;;;;;4.45;1.35;;;;;;;0.71;82.81;100763.81;10251501;29;20036;-75
2022/03/24 02:10:16;;;;;;;2.83;0.68;;;;;;;0.21;83.15;100655.38;10250188;29;20125;-75
2022/03/24 02:15:18;;;;;;;4.03;1.13;;;;;;;-0.24;82.61;100560.59;10251505;29;20098;-75
2022/03/24 02:20:20;;;;;;;7.45;1.33;;;;;;;0.69;83.12;100702.94;10251428;29;20051;-75
2022/03/24 02:25:28;;;;;;;1.52;0.60;;;;;;;0.86;82.53;100731.47;10255660;28;20519;-76
2022/03/24 02:30:29;;;;;;;6.55;1.63;;;;;;;0.60;82.79;100679.97;10259397;29;20451;-74
2022/03/24 02:35:30;;;;;;;1.25;0.45;;;;;;;0.69;83.18;100684.66;10258479;29;20503;-75
2022/03/24 02:40:32;;;;;;;3.05;1.23;;;;;;;0.88;82.90;100697.38;10294372;28;20051;-76
2022/03/24 02:45:33;;;;;;;5.88;2.25;;;;;;;0.74;82.93;100666.88;10296527;28;20086;-76
2022/03/24 02:50:34;;;;;;;4.85;1.55;;;;;;;0.91;83.02;100684.94;10291906;28;20100;-77
2022/03/24 02:55:35;;;;;;;5.28;1.58;;;;;;;0.76;83.35;100641.47;10295625;28;20873;-76
2022/03/24 03:00:38;;;;;;;1.85;0.55;;;;;;;0.44;82.63;100578.97;10290890;28;20138;-78
2022/03/24 03:05:39;;;;;;;4.30;1.30;;;;;;;-1.13;82.78;100309.56;10293234;28;20034;-76
2022/03/24 03:10:40;;;;;;;3.17;0.90;;;;;;;-0.22;82.86;100449.09;10293279;28;20038;-77
2022/03/24 03:15:41;;;;;;;3.25;1.17;;;;;;;0.27;82.03;100513.91;10286013;28;20046;-76
2022/03/24 03:20:42;;;;;;;5.65;1.45;;;;;;;1.20;82.83;100669.16;10292989;28;20057;-77
2022/03/24 03:25:43;;;;;;;3.35;0.95;;;;;;;1.24;81.92;100654.94;10294717;28;20047;-76
2022/03/24 03:30:45;;;;;;;3.58;0.90;;;;;;;1.16;81.84;100638.88;10293707;28;20451;-76
2022/03/24 03:35:45;;;;;;;2.17;0.40;;;;;;;1.29;81.88;100658.09;10293864;28;20121;-77
2022/03/24 03:40:47;;;;;;;1.25;0.43;;;;;;;1.34;81.33;100648.13;10263570;28;20095;-77
2022/03/24 03:45:48;;;;;;;3.33;1.15;;;;;;;1.18;81.21;100621.31;10255602;29;20074;-76
2022/03/24 03:50:49;;;;;;;3.88;0.80;;;;;;;1.38;80.87;100648.81;10219997;28;20050;-80
2022/03/24 03:55:50;;;;;;;5.72;0.90;;;;;;;1.39;80.63;100636.53;10329394;28;20097;-79
2022/03/24 04:00:57;;;;;;;4.53;1.13;;;;;;;1.37;80.27;100639.25;10300232;28;20475;-79
2022/03/24 04:06:06;;;;;;;1.10;0.50;;;;;;;1.19;79.85;100609.06;10255070;28;20089;-79
2022/03/24 04:11:08;;;;;;;1.33;0.30;;;;;;;1.41;79.83;100632.88;10276398;28;20561;-83
2022/03/24 04:16:11;;;;;;;1.65;0.50;;;;;;;1.29;78.92;100618.84;10291687;28;20427;-80
2022/03/24 04:21:12;;;;;;;5.53;0.90;;;;;;;0.54;78.54;100489.53;10282260;28;20553;-77
2022/03/24 04:26:13;;;;;;;2.38;0.40;;;;;;;1.40;78.27;100596.31;10269379;28;20122;-87
2022/03/24 04:31:14;;;;;;;4.60;1.00;;;;;;;1.46;77.74;100615.06;10276082;28;20145;-79
2022/03/24 04:36:16;;;;;;;3.45;1.00;;;;;;;1.56;77.69;100625.78;10293800;28;20117;-85
2022/03/24 04:41:17;;;;;;;2.80;0.75;;;;;;;0.95;76.43;100484.19;10294056;28;20414;-79
2022/03/24 04:46:18;;;;;;;3.35;0.80;;;;;;;1.72;76.05;100573.19;10284433;28;20055;-79
2022/03/24 04:51:19;;;;;;;5.78;1.23;;;;;;;1.98;74.58;100593.19;10277670;28;20050;-78
2022/03/24 04:56:20;;;;;;;3.72;0.98;;;;;;;1.07;73.97;100422.34;10258903;28;20043;-78
2022/03/24 05:01:21;;;;;;;2.28;0.40;;;;;;;2.13;73.61;100583.44;10253305;28;20039;-78
2022/03/24 05:06:21;;;;;;;4.18;0.60;;;;;;;2.26;73.24;100578.16;10252458;29;20039;-78
2022/03/24 05:11:22;;;;;;;2.22;0.60;;;;;;;2.15;72.11;100539.59;10252962;29;20046;-78
2022/03/24 05:16:24;;;;;;;5.55;0.90;;;;;;;2.36;71.89;100587.03;10252339;28;20051;-78
2022/03/24 05:21:24;;;;;;;17.48;0.70;;;;;;;2.41;71.73;100582.28;10253509;29;20504;-77
2022/03/24 05:26:26;;;;;;;2.65;0.57;;;;;;;1.74;71.54;100449.06;10251683;29;20130;-78
2022/03/24 05:31:27;;;;;;;6.93;1.08;;;;;;;2.49;71.89;100550.28;10251758;29;20054;-77
2022/03/24 05:36:27;;;;;;;5.15;0.90;;;;;;;2.44;71.13;100494.72;10251912;28;20039;-77
2022/03/24 05:41:30;;;;;;;8.10;1.48;;;;;;;2.78;70.99;100511.41;10251174;29;20047;-77
2022/03/24 05:46:42;;;;;;;4.47;0.38;;;;;;;2.98;70.07;100486.31;10251983;29;20095;-77
2022/03/24 05:51:44;;;;;;;4.13;0.80;;;;;;;3.15;69.49;100491.13;10251775;29;20082;-77
2022/03/24 05:56:46;;;;;;;3.65;0.77;;;;;;;3.17;68.50;100454.25;10251080;28;20053;-78
2022/03/24 06:01:47;;;;;;;4.18;0.52;;;;;;;3.34;68.27;100482.69;10258188;29;20047;-78
2022/03/24 06:06:53;;;;;;;6.40;1.20;;;;;;;3.76;68.25;100524.13;10259991;29;20441;-77
2022/03/24 06:11:56;;;;;;;5.53;0.50;;;;;;;3.90;67.59;100542.28;10260102;29;20126;-77
2022/03/24 06:16:57;;;;;;;7.88;0.75;;;;;;;3.41;66.25;100431.38;10259326;29;20050;-78
2022/03/24 06:21:58;;;;;;;6.25;1.80;;;;;;;3.71;65.98;100463.22;10259288;29;20039;-77
2022/03/24 06:26:59;;;;;;;8.32;1.13;;;;;;;4.07;65.49;100489.22;10257964;29;20043;-77
2022/03/24 06:32:00;;;;;;;11.15;1.50;;;;;;;4.23;65.42;100501.97;10258664;29;20418;-77
2022/03/24 06:37:02;;;;;;;7.78;1.15;;;;;;;3.59;65.54;100387.06;10258587;29;20133;-76
2022/03/24 06:42:03;;;;;;;5.90;0.75;;;;;;;3.98;64.38;100412.88;10257955;29;20403;-76
2022/03/24 06:47:05;;;;;;;10.32;0.70;;;;;;;4.42;64.55;100464.47;10258010;28;20480;-76
2022/03/24 06:52:07;;;;;;;6.32;1.42;;;;;;;3.71;63.41;100327.47;10258112;29;20419;-78
2022/03/24 06:57:08;;;;;;;17.05;1.58;;;;;;;4.52;63.59;100433.84;10257853;29;20438;-76
2022/03/24 07:02:09;;;;;;;2.38;0.63;;;;;;;4.86;63.24;100470.50;10257252;29;20043;-77
2022/03/24 07:07:10;;;;;;;6.93;0.65;;;;;;;5.09;62.58;100478.28;10256954;29;20035;-77
2022/03/24 07:12:11;;;;;;;6.47;1.25;;;;;;;5.00;62.90;100454.41;10256903;28;20495;-78
2022/03/24 07:17:14;;;;;;;8.82;0.77;;;;;;;4.94;62.26;100443.56;10256623;29;20459;-77
2022/03/24 07:22:15;;;;;;;7.80;1.42;;;;;;;4.74;62.03;100414.47;10256375;29;20071;-78
2022/03/24 07:27:16;;;;;;;4.78;0.85;;;;;;;5.00;62.76;100459.66;10256851;29;20066;-78
2022/03/24 07:32:17;;;;;;;5.88;1.15;;;;;;;4.74;63.13;100437.31;10257142;29;20051;-78
2022/03/24 07:37:18;;;;;;;5.50;0.82;;;;;;;4.87;63.62;100437.94;10256042;29;20134;-78
2022/03/24 07:42:19;;;;;;;8.68;0.88;;;;;;;4.99;63.06;100455.34;10256366;29;20510;-78
2022/03/24 07:47:19;;;;;;;8.45;1.38;;;;;;;4.32;63.66;100342.59;10256017;29;20403;-78
2022/03/24 07:52:25;;;;;;;1.92;0.70;;;;;;;4.79;63.90;100409.66;10255313;29;20554;-78
2022/03/24 07:57:30;;;;;;;3.55;1.00;;;;;;;3.89;63.54;100251.53;10255060;28;20087;-78
2022/03/24 08:02:31;;;;;;;5.10;1.35;;;;;;;5.00;63.92;100430.72;10238516;29;20071;-78
2022/03/24 08:07:32;;;;;;;7.30;1.70;;;;;;;4.72;63.72;100376.09;10255223;29;20514;-78
2022/03/24 08:12:32;;;;;;;10.70;1.55;;;;;;;5.14;64.09;100418.97;10255668;29;20367;-77
2022/03/24 08:17:33;;;;;;;8.07;1.23;;;;;;;5.08;63.59;100408.16;10254766;29;20487;-78
2022/03/24 08:22:34;;;;;;;6.25;1.40;;;;;;;5.22;63.00;100410.44;10254048;28;20524;-78
2022/03/24 08:27:36;;;;;;;8.43;1.65;;;;;;;5.06;62.92;100386.41;10254071;29;20492;-78
2022/03/24 08:32:37;;;;;;;7.38;1.00;;;;;;;5.31;62.10;100422.81;10254297;29;20043;-78
2022/03/24 08:37:38;;;;;;;5.28;1.00;;;;;;;5.29;61.97;100385.22;10253561;29;20058;-78
2022/03/24 08:42:40;;;;;;;6.57;0.95;;;;;;;5.20;60.95;100354.41;10253880;29;20126;-78
2022/03/24 08:47:42;;;;;;;13.85;1.40;;;;;;;5.53;60.86;100399.88;10254168;29;20384;-78
2022/03/24 08:52:43;;;;;;;20.83;1.80;;;;;;;4.53;61.16;100222.44;10252953;29;20047;-78
2022/03/24 08:57:44;;;;;;;14.90;1.77;;;;;;;5.73;60.86;100383.16;10253376;29;20078;-78
2022/03/24 09:02:47;;;;;;;6.40;1.33;;;;;;;5.84;59.93;100375.13;10253413;29;20129;-78
2022/03/24 09:07:49;;;;;;;10.93;1.27;;;;;;;5.55;59.58;100337.34;10253906;28;20045;-77
2022/03/24 09:12:49;;;;;;;9.82;1.95;;;;;;;5.48;60.26;100321.25;10253454;29;20047;-77
2022/03/24 09:17:52;;;;;;;14.63;1.60;;;;;;;5.04;60.39;100244.34;10252496;29;20059;-77
2022/03/24 09:22:53;;;;;;;6.10;1.30;;;;;;;5.06;61.44;100233.69;10251999;29;20046;-78
2022/03/24 09:27:54;;;;;;;19.05;2.13;;;;;;;4.67;61.63;100179.16;10252444;29;20047;-77
2022/03/24 09:32:55;;;;;;;22.15;1.70;;;;;;;5.71;61.78;100341.13;10252819;28;20498;-77
2022/03/24 09:37:55;;;;;;;8.05;1.45;;;;;;;5.76;61.83;100339.88;10251485;29;20043;-78
2022/03/24 09:42:58;;;;;;;8.48;1.60;;;;;;;5.79;62.09;100329.88;10251535;29;20499;-79
2022/03/24 09:47:59;;;;;;;9.48;2.00;;;;;;;5.70;61.43;100336.81;10252165;29;20059;-77
2022/03/24 09:53:00;;;;;;;8.70;1.27;;;;;;;5.75;61.11;100341.69;10252204;29;20043;-77
2022/03/24 09:58:02;;;;;;;10.48;1.73;;;;;;;5.68;60.65;100343.19;10251966;29;20075;-77
2022/03/24 10:03:32;;;;;;;7.18;1.17;;;;;;;5.87;60.03;100330.03;10251624;29;20074;-77
2022/03/24 10:08:34;;;;;;;12.50;1.80;;;;;;;5.85;60.11;100331.97;10242262;29;20047;-76
2022/03/24 10:13:55;;;;;;;12.80;1.23;;;;;;;5.96;60.26;100332.84;10250809;29;20069;-77
2022/03/24 10:18:58;;;;;;;5.07;1.50;;;;;;;5.83;59.62;100304.06;10249955;29;20047;-77
2022/03/24 10:24:07;;;;;;;18.65;1.92;;;;;;;5.97;59.81;100321.31;10233942;29;20031;-77
2022/03/24 10:29:14;;;;;;;13.93;1.65;;;;;;;6.04;59.38;100335.59;10250705;29;20077;-77
2022/03/24 10:34:15;;;;;;;2.33;0.70;;;;;;;5.31;59.60;100188.38;10250541;29;20122;-77
2022/03/24 10:39:24;;;;;;;5.65;0.68;;;;;;;5.99;59.63;100306.22;10251088;29;20491;-76
2022/03/24 10:44:25;;;;;;;8.02;1.27;;;;;;;5.98;60.19;100301.88;10252976;28;20046;-77
2022/03/24 10:49:29;;;;;;;10.50;1.15;;;;;;;6.14;59.62;100310.09;10258566;28;20065;-77
2022/03/24 10:54:46;;;;;;;11.77;1.48;;;;;;;6.29;59.89;100326.31;10257614;29;20039;-77
2022/03/24 10:59:54;;;;;;;8.35;1.30;;;;;;;6.10;60.44;100328.00;10257954;29;20049;-78
2022/03/24 11:04:59;;;;;;;12.05;2.13;;;;;;;5.47;61.12;100246.66;10257196;29;20043;-78
2022/03/24 11:10:10;;;;;;;10.38;1.70;;;;;;;5.84;62.11;100346.13;10256847;29;20122;-77
2022/03/24 11:15:12;;;;;;;10.80;1.55;;;;;;;5.21;62.85;100233.16;10257549;29;20043;-77
2022/03/24 11:20:13;;;;;;;6.32;1.33;;;;;;;5.71;64.79;100337.63;10256616;29;20105;-78
2022/03/24 11:25:13;;;;;;;8.00;1.55;;;;;;;5.28;65.39;100293.19;10256374;29;20098;-78
2022/03/24 11:30:15;;;;;;;8.48;1.30;;;;;;;5.49;66.18;100343.97;10256676;29;20081;-78
2022/03/24 11:35:16;;;;;;;7.53;1.63;;;;;;;5.49;66.41;100334.28;10256041;29;20043;-77
2022/03/24 11:40:23;;;;;;;8.10;1.70;;;;;;;5.58;66.37;100344.97;10256765;29;20491;-78
2022/03/24 11:45:40;;;;;;;19.38;3.10;;;;;;;4.98;67.31;100264.13;10255832;29;20515;-78
2022/03/24 11:50:47;;;;;;;16.33;2.42;;;;;;;4.93;69.15;100271.59;10256073;29;20050;-78
2022/03/24 11:56:01;;;;;;;15.05;3.00;;;;;;;5.35;70.01;100362.78;10254623;28;20043;-79
2022/03/24 12:01:25;;;;;;;18.53;3.17;;;;;;;5.34;71.24;100361.97;10255665;29;20050;-78
2022/03/24 12:06:41;;;;;;;15.38;2.50;;;;;;;5.31;72.50;100369.31;10238310;29;20039;-78
2022/03/24 12:11:47;;;;;;;18.48;2.92;;;;;;;5.15;74.65;100367.19;10255197;29;20578;-79
2022/03/24 12:16:53;;;;;;;10.15;2.38;;;;;;;5.13;75.02;100358.56;10254357;29;20047;-79
2022/03/24 12:21:57;;;;;;;8.10;1.70;;;;;;;5.04;76.41;100368.91;10254274;29;20039;-79
2022/03/24 12:26:59;;;;;;;24.52;3.42;;;;;;;4.58;78.22;100322.84;10253054;29;20055;-77
2022/03/24 12:32:11;;;;;;;19.33;3.72;;;;;;;4.82;79.42;100377.00;10258367;28;20537;-77
2022/03/24 12:37:39;;;;;;;29.30;3.40;;;;;;;4.72;79.92;100376.09;10292208;28;20050;-78
2022/03/24 12:42:54;;;;;;;26.58;3.88;;;;;;;4.15;80.78;100301.94;10247983;28;20058;-82
2022/03/24 12:48:05;;;;;;;19.52;3.60;;;;;;;4.16;84.78;100329.03;10248599;28;20399;-79
2022/03/24 12:53:08;;;;;;;14.40;3.17;;;;;;;3.46;88.46;100255.03;10253187;29;20082;-80
2022/03/24 12:58:14;;;;;;;10.75;2.67;;;;;;;4.11;89.00;100343.41;10236150;29;20043;-80
2022/03/24 13:03:16;;;;;;;21.92;4.45;;;;;;;4.32;89.69;100390.78;10252616;29;20044;-81
2022/03/24 13:08:17;;;;;;;16.10;4.35;;;;;;;4.28;90.51;100394.63;10252059;28;20035;-80
2022/03/24 13:13:18;;;;;;;13.48;4.88;;;;;;;3.45;91.44;100277.03;10252336;29;20043;-80
2022/03/24 13:18:18;;;;;;;13.65;2.42;;;;;;;4.04;93.91;100384.31;10251585;28;20496;-81
2022/03/24 13:23:23;;;;;;;25.88;5.32;;;;;;;3.54;94.28;100302.53;10252003;29;20491;-79
2022/03/24 13:28:31;;;;;;;15.48;4.30;;;;;;;4.05;95.28;100409.63;10234402;29;20097;-79
2022/03/24 13:33:32;;;;;;;13.98;5.45;;;;;;;4.03;96.11;100432.59;10252137;29;20043;-80
2022/03/24 13:38:33;;;;;;;13.60;6.05;;;;;;;4.03;96.84;100416.81;10251579;29;20066;-80
2022/03/24 13:43:34;;;;;;;18.50;10.02;;;;;;;3.83;98.03;100394.78;10251694;29;20047;-78
2022/03/24 13:48:36;;;;;;;16.35;10.43;;;;;;;3.90;99.74;100418.78;10252102;29;20051;-79
2022/03/24 13:53:37;;;;;;;19.75;12.95;;;;;;;3.80;99.23;100436.22;10251815;29;20107;-78
2022/03/24 13:58:39;;;;;;;20.60;12.52;;;;;;;3.79;99.34;100427.50;10251208;29;20459;-78
2022/03/24 14:03:42;;;;;;;21.20;13.15;;;;;;;3.72;100.00;100443.88;10250953;28;20503;-79
2022/03/24 14:08:48;;;;;;;21.77;11.95;;;;;;;3.43;100.00;100397.09;10248994;29;20079;-75
2022/03/24 14:13:59;;;;;;;22.05;10.45;;;;;;;3.68;100.00;100443.31;10250920;29;20047;-76
2022/03/24 14:19:05;;;;;;;14.20;7.50;;;;;;;3.69;100.00;100437.06;10252168;28;20055;-76
2022/03/24 14:24:07;;;;;;;8.02;4.20;;;;;;;3.22;100.00;100383.03;10298917;28;20096;-78
2022/03/24 14:29:21;;;;;;;8.25;3.42;;;;;;;3.60;100.00;100445.69;10297300;28;20461;-77
2022/03/24 14:34:22;;;;;;;8.45;5.10;;;;;;;2.64;100.00;100289.53;10297888;28;20043;-76
2022/03/24 14:39:22;;;;;;;8.10;5.40;;;;;;;2.58;100.00;100300.47;10296859;28;20043;-77
2022/03/24 14:44:24;;;;;;;12.75;6.28;;;;;;;3.36;100.00;100440.56;10296940;28;20403;-77
2022/03/24 14:49:25;;;;;;;12.15;8.95;;;;;;;3.15;100.00;100416.81;10313342;28;20086;-81
2022/03/24 14:54:27;;;;;;;10.60;7.65;;;;;;;2.94;100.00;100379.94;10342028;28;20514;-78
2022/03/24 14:59:28;;;;;;;16.75;9.98;;;;;;;2.31;100.00;100281.63;10329744;28;20054;-82
2022/03/24 15:04:29;;;;;;;11.55;6.85;;;;;;;2.81;100.00;100359.03;10324182;28;20087;-76
2022/03/24 15:09:29;;;;;;;17.58;11.23;;;;;;;3.07;100.00;100411.31;10331687;28;20200;-82
2022/03/24 16:22:40;;;;;;;22.23;9.70;;;;;;;3.03;100.00;100460.56;10513219;27;20430;-85
2022/03/24 16:27:41;;;;;;;16.75;9.48;;;;;;;2.83;100.00;100446.34;10503639;28;20043;-82
2022/03/24 16:32:41;;;;;;;5.97;3.33;;;;;;;2.46;100.00;100390.56;10492503;28;20056;-82
2022/03/24 16:37:42;;;;;;;31.35;16.30;;;;;;;2.82;100.00;100444.66;10496823;28;20045;-82
2022/03/24 16:42:43;;;;;;;16.50;10.00;;;;;;;2.81;100.00;100452.63;10489023;28;20048;-83
2022/03/24 16:47:44;;;;;;;9.60;3.80;;;;;;;2.54;100.00;100418.81;10488878;28;20040;-84
2022/03/24 16:52:46;;;;;;;12.65;5.55;;;;;;;2.94;100.00;100492.75;10487882;28;20538;-84
2022/03/24 16:57:47;;;;;;;11.82;6.22;;;;;;;2.07;100.00;100360.28;10487668;28;20438;-82
2022/03/24 17:02:48;;;;;;;6.43;2.95;;;;;;;2.50;100.00;100440.03;10481148;28;20507;-83
2022/03/24 17:07:52;;;;;;;9.18;5.03;;;;;;;2.73;100.00;100503.91;10487780;28;20071;-84
2022/03/24 17:12:53;;;;;;;8.15;3.97;;;;;;;2.22;100.00;100415.03;10487396;28;20506;-84
2022/03/24 17:17:54;;;;;;;6.38;3.10;;;;;;;2.67;100.00;100487.78;10485778;28;20041;-84
2022/03/24 17:22:55;;;;;;;10.10;2.15;;;;;;;2.72;100.00;100489.13;10463196;28;20091;-83
2022/03/24 17:27:56;;;;;;;5.55;2.60;;;;;;;2.48;100.00;100459.44;10459580;28;20094;-78
2022/03/24 17:32:57;;;;;;;5.30;2.97;;;;;;;2.72;100.00;100494.38;10458504;28;20136;-84
2022/03/24 17:37:58;;;;;;;6.22;2.05;;;;;;;2.65;100.00;100493.13;10459496;28;20527;-84
2022/03/24 17:42:59;;;;;;;2.95;1.92;;;;;;;1.95;100.00;100396.91;10458867;28;20447;-83
2022/03/24 17:48:01;;;;;;;4.85;2.47;;;;;;;1.94;100.00;100395.22;10458553;28;20048;-84
2022/03/24 17:53:04;;;;;;;5.03;1.80;;;;;;;2.16;100.00;100446.94;10455913;28;20033;-84
2022/03/24 17:58:04;;;;;;;10.07;4.35;;;;;;;1.80;100.00;100388.38;10456709;28;20040;-84
2022/03/24 18:03:05;;;;;;;6.82;2.33;;;;;;;0.88;100.00;100237.09;10454554;28;20033;-84
2022/03/24 18:08:08;;;;;;;8.98;4.63;;;;;;;2.49;100.00;100482.94;10454290;28;20055;-85
2022/03/24 18:13:10;;;;;;;14.75;7.68;;;;;;;2.24;100.00;100446.34;10458017;28;20037;-85
2022/03/24 18:18:11;;;;;;;20.42;9.20;;;;;;;2.60;100.00;100495.25;10457246;28;20079;-84
2022/03/24 18:23:13;;;;;;;27.88;14.60;;;;;;;2.57;100.00;100477.13;10457258;28;20544;-84
2022/03/24 18:28:14;;;;;;;11.80;5.93;;;;;;;2.63;100.00;100489.81;10473207;28;20126;-84
2022/03/24 18:33:14;;;;;;;3.83;1.85;;;;;;;2.54;100.00;100485.22;10457747;28;20077;-84
2022/03/24 18:38:15;;;;;;;3.65;1.27;;;;;;;2.59;100.00;100492.75;10456910;28;20091;-83
2022/03/24 18:43:16;;;;;;;3.55;1.60;;;;;;;2.00;100.00;100399.19;10456814;28;20045;-84
2022/03/24 18:48:17;;;;;;;2.13;1.13;;;;;;;2.20;100.00;100458.03;10456791;28;20041;-84
2022/03/24 18:53:19;;;;;;;7.03;2.25;;;;;;;2.40;100.00;100503.78;10456746;28;20048;-85
2022/03/24 18:58:20;;;;;;;4.78;2.65;;;;;;;1.73;100.00;100381.91;10456076;28;20389;-84
2022/03/24 19:03:20;;;;;;;3.78;1.90;;;;;;;1.97;100.00;100423.81;10456474;28;20049;-84
2022/03/24 19:08:22;;;;;;;4.82;2.85;;;;;;;2.44;100.00;100486.84;10456047;28;20427;-85
2022/03/24 19:13:23;;;;;;;6.18;2.30;;;;;;;1.24;100.00;100295.59;10457061;28;20573;-85
2022/03/24 19:18:25;;;;;;;4.63;1.88;;;;;;;2.16;100.00;100460.03;10455733;28;20053;-85
2022/03/24 19:23:27;;;;;;;3.85;2.00;;;;;;;2.25;100.00;100497.84;10452921;28;20048;-84
2022/03/24 19:28:28;;;;;;;2.47;1.50;;;;;;;2.15;100.00;100466.19;10453977;28;20139;-84
2022/03/24 19:33:29;;;;;;;2.60;1.17;;;;;;;1.56;100.00;100380.50;10413996;28;20124;-83
2022/03/24 19:38:29;;;;;;;2.38;1.33;;;;;;;1.50;100.00;100351.31;10414236;28;20044;-83
2022/03/24 19:43:30;;;;;;;2.75;1.45;;;;;;;0.61;100.00;100224.16;10414138;28;20493;-83
2022/03/24 19:48:31;;;;;;;2.83;1.25;;;;;;;1.52;100.00;100349.41;10411462;28;20046;-83
2022/03/24 19:53:32;;;;;;;3.97;1.42;;;;;;;2.14;100.00;100455.84;10443663;28;20048;-84
2022/03/24 19:58:34;;;;;;;10.80;7.75;;;;;;;1.47;100.00;100356.78;10453839;28;20041;-84
2022/03/24 20:03:35;;;;;;;9.52;5.78;;;;;;;1.77;100.00;100438.38;10452963;28;20094;-83
2022/03/24 20:08:35;;;;;;;9.07;3.20;;;;;;;1.94;100.00;100458.09;10450630;28;20426;-84
2022/03/24 20:13:38;;;;;;;10.88;4.65;;;;;;;1.81;100.00;100466.00;10449582;28;20484;-84
2022/03/24 20:18:39;;;;;;;4.68;2.15;;;;;;;1.77;100.00;100463.72;10449856;28;20057;-83
2022/03/24 20:23:40;;;;;;;4.35;2.30;;;;;;;1.74;100.00;100461.31;10453607;28;20091;-84
2022/03/24 20:28:41;;;;;;;6.30;3.42;;;;;;;1.69;100.00;100459.03;10454566;28;20053;-85
2022/03/24 20:33:42;;;;;;;3.15;1.52;;;;;;;0.83;100.00;100317.63;10454009;28;20036;-84
2022/03/24 20:38:43;;;;;;;5.10;1.98;;;;;;;1.35;100.00;100413.44;10454350;28;20492;-85
2022/03/24 20:43:44;;;;;;;7.82;2.35;;;;;;;1.48;100.00;100444.81;10453926;28;20049;-85
2022/03/24 20:48:45;;;;;;;3.83;2.20;;;;;;;1.15;100.00;100391.25;10454316;28;20052;-87
2022/03/24 20:53:46;;;;;;;3.35;2.22;;;;;;;1.35;100.00;100431.75;10432609;28;20049;-84
2022/03/24 20:58:47;;;;;;;5.80;2.67;;;;;;;1.34;100.00;100433.50;10419893;28;20052;-84
2022/03/24 21:03:48;;;;;;;6.05;2.92;;;;;;;1.34;100.00;100443.97;10420070;28;20037;-84
2022/03/24 21:08:49;;;;;;;7.28;4.22;;;;;;;0.43;100.00;100284.59;10419583;28;20485;-84
2022/03/24 21:13:51;;;;;;;3.95;2.80;;;;;;;1.37;100.00;100429.84;10419022;28;20037;-84
2022/03/24 21:18:51;;;;;;;3.85;2.63;;;;;;;1.04;100.00;100368.44;10419076;28;20535;-85
2022/03/24 21:23:53;;;;;;;3.75;2.30;;;;;;;1.13;100.00;100393.13;10419572;28;20056;-85
2022/03/24 21:28:55;;;;;;;4.22;2.58;;;;;;;1.07;100.00;100377.88;10418582;28;20049;-85
2022/03/24 21:33:55;;;;;;;3.10;2.08;;;;;;;1.19;100.00;100384.88;10418837;28;20041;-83
2022/03/24 21:38:56;;;;;;;5.60;2.33;;;;;;;1.41;100.00;100418.25;10418510;28;20041;-85
2022/03/24 21:43:57;;;;;;;3.60;2.38;;;;;;;1.37;100.00;100407.13;10418664;28;20042;-83
2022/03/24 21:49:00;;;;;;;4.20;2.47;;;;;;;1.14;100.00;100373.91;10417896;28;20029;-84
2022/03/24 21:54:01;;;;;;;4.25;2.28;;;;;;;1.40;100.00;100403.47;10417479;28;20042;-83
2022/03/24 21:59:02;;;;;;;3.78;2.15;;;;;;;1.24;100.00;100376.69;10417527;28;20038;-84
2022/03/24 22:04:04;;;;;;;3.35;2.30;;;;;;;1.44;100.00;100391.03;10417240;28;20048;-85
2022/03/24 22:09:07;;;;;;;3.78;2.00;;;;;;;1.44;100.00;100404.94;10416511;28;20124;-84
2022/03/24 22:14:08;;;;;;;2.58;1.73;;;;;;;0.77;100.00;100277.03;10416147;28;20056;-85
2022/03/24 22:19:09;;;;;;;4.10;1.95;;;;;;;1.01;100.00;100321.56;10417063;28;20053;-84
2022/03/24 22:24:10;;;;;;;2.80;1.70;;;;;;;1.12;100.00;100339.16;10416779;28;20038;-84
2022/03/24 22:29:11;;;;;;;2.38;1.60;;;;;;;1.21;100.00;100348.97;10416805;28;20488;-82
2022/03/24 22:34:12;;;;;;;2.25;1.55;;;;;;;1.29;100.00;100351.06;10414683;28;20056;-83
2022/03/24 22:39:13;;;;;;;2.78;1.80;;;;;;;1.22;100.00;100328.88;10416234;28;20045;-84
2022/03/24 22:44:14;;;;;;;2.50;1.60;;;;;;;1.37;100.00;100362.63;10416171;28;20045;-84
2022/03/24 22:49:15;;;;;;;3.17;1.80;;;;;;;1.34;100.00;100362.00;10415382;28;20493;-84
2022/03/24 22:54:16;;;;;;;2.78;1.88;;;;;;;1.35;100.00;100356.69;10415886;28;20070;-83
2022/03/24 22:59:19;;;;;;;2.90;2.00;;;;;;;1.52;100.00;100379.03;10415401;28;20049;-83
2022/03/24 23:04:22;;;;;;;2.45;1.58;;;;;;;1.40;100.00;100358.13;10415885;28;20135;-83
2022/03/24 23:09:23;;;;;;;2.65;1.70;;;;;;;1.29;100.00;100351.88;10415120;28;20042;-83
2022/03/24 23:14:24;;;;;;;3.15;2.17;;;;;;;0.63;100.00;100256.28;10415110;28;20061;-83
2022/03/24 23:19:24;;;;;;;5.88;3.00;;;;;;;0.95;100.00;100303.69;10414136;28;20144;-83
2022/03/24 23:24:25;;;;;;;3.38;2.60;;;;;;;1.37;100.00;100374.88;10414657;28;20073;-83
2022/03/24 23:29:26;;;;;;;6.57;3.50;;;;;;;1.34;100.00;100375.94;10414405;28;20041;-83
2022/03/24 23:34:27;;;;;;;6.15;3.10;;;;;;;1.36;100.00;100383.69;10414279;28;20136;-82
2022/03/24 23:39:28;;;;;;;4.40;3.22;;;;;;;0.72;100.00;100263.47;10414066;28;20041;-83
2022/03/24 23:44:28;;;;;;;5.47;3.70;;;;;;;0.54;100.00;100226.38;10413812;28;20130;-83
2022/03/24 23:49:30;;;;;;;7.90;5.93;;;;;;;1.30;100.00;100350.94;10413932;28;20037;-83
2022/03/24 23:54:31;;;;;;;4.13;3.08;;;;;;;1.33;100.00;100353.34;10413102;28;20426;-83
2022/03/24 23:59:32;;;;;;;3.47;2.22;;;;;;;0.76;100.00;100272.78;10413913;28;20473;-83
